Time;durP1;ratioP1;P1;durP2;ratioP2;P2;SDS_P1;SDS_P2;PMS_P1;PMS_P2;Temp;Humidity;BMP_temperature;BMP_pressure;BME280_temperature;BME280_humidity;BME280_pressure;Samples;Min_cycle;Max_cycle;Signal;HPM_P1;HPM_P2
2023/05/06 00:00:05;;;;;;;7.25;5.72;;;13.50;99.90;;;;;;4998109;28;20467;-72
2023/05/06 00:02:31;;;;;;;6.90;6.10;;;13.40;99.90;;;;;;5014208;28;20050;-72
2023/05/06 00:04:57;;;;;;;8.55;6.38;;;13.40;99.90;;;;;;5015694;28;20115;-71
2023/05/06 00:07:22;;;;;;;6.93;5.88;;;13.40;99.90;;;;;;5014980;28;20117;-71
2023/05/06 00:09:48;;;;;;;7.32;6.22;;;13.40;99.90;;;;;;5014978;28;20058;-72
2023/05/06 00:12:14;;;;;;;6.13;5.53;;;13.30;99.90;;;;;;5014975;28;20072;-71
2023/05/06 00:14:40;;;;;;;6.88;5.90;;;13.40;99.90;;;;;;5014970;28;20046;-72
2023/05/06 00:17:05;;;;;;;10.07;7.30;;;13.30;99.90;;;;;;5014883;28;20041;-71
2023/05/06 00:19:31;;;;;;;7.38;5.85;;;13.30;99.90;;;;;;5015172;28;20068;-72
2023/05/06 00:21:57;;;;;;;6.18;5.57;;;13.30;99.90;;;;;;5014879;28;20080;-72
2023/05/06 00:24:23;;;;;;;6.50;5.90;;;13.30;99.90;;;;;;5014410;28;20481;-72
2023/05/06 00:26:49;;;;;;;7.78;5.97;;;13.20;99.90;;;;;;5014729;28;20045;-71
2023/05/06 00:29:15;;;;;;;9.50;6.65;;;13.20;99.90;;;;;;5014885;28;20085;-72
2023/05/06 00:31:41;;;;;;;8.60;7.22;;;13.10;99.90;;;;;;5014643;28;20045;-72
2023/05/06 00:34:07;;;;;;;9.40;7.72;;;13.10;99.90;;;;;;5014592;28;20061;-72
2023/05/06 00:36:33;;;;;;;8.75;7.38;;;13.10;99.90;;;;;;5014458;28;20407;-72
2023/05/06 00:38:58;;;;;;;6.35;5.75;;;12.80;99.90;;;;;;5014425;28;20046;-72
2023/05/06 00:41:25;;;;;;;6.20;5.60;;;12.90;99.90;;;;;;5014437;28;20050;-71
2023/05/06 00:43:50;;;;;;;7.18;6.47;;;12.90;99.90;;;;;;4997108;28;20050;-72
2023/05/06 00:46:16;;;;;;;7.28;6.57;;;12.80;99.90;;;;;;5014650;28;20485;-71
2023/05/06 00:48:43;;;;;;;9.88;6.55;;;12.70;99.90;;;;;;5014653;28;20128;-71
2023/05/06 00:51:10;;;;;;;8.45;6.50;;;12.70;99.90;;;;;;5014405;28;20046;-72
2023/05/06 00:53:36;;;;;;;7.05;6.32;;;12.60;99.90;;;;;;4997478;28;20057;-72
2023/05/06 00:56:02;;;;;;;9.38;6.22;;;12.60;99.90;;;;;;5014748;28;20193;-72
2023/05/06 00:58:28;;;;;;;7.28;5.70;;;12.50;99.90;;;;;;5014095;28;20090;-72
2023/05/06 01:00:54;;;;;;;6.97;6.28;;;12.50;99.90;;;;;;5014108;28;20076;-72
2023/05/06 01:03:20;;;;;;;6.22;5.55;;;12.60;99.90;;;;;;5014300;28;20046;-72
2023/05/06 01:06:09;;;;;;;8.07;7.30;;;12.60;99.90;;;;;;5013917;28;20053;-72
2023/05/06 01:08:45;;;;;;;7.32;5.97;;;12.60;99.90;;;;;;5013810;28;20106;-72
2023/05/06 01:11:18;;;;;;;6.07;5.15;;;12.60;99.90;;;;;;5014555;28;20050;-72
2023/05/06 01:13:55;;;;;;;9.07;6.72;;;12.60;99.90;;;;;;5013612;28;20053;-71
2023/05/06 01:16:24;;;;;;;8.45;6.88;;;12.60;99.90;;;;;;5014114;28;20096;-71
2023/05/06 01:18:51;;;;;;;7.78;6.70;;;12.70;99.90;;;;;;5014232;28;20091;-72
2023/05/06 01:21:18;;;;;;;10.30;7.03;;;12.60;99.90;;;;;;4996152;28;20136;-72
2023/05/06 01:23:56;;;;;;;6.85;5.95;;;12.60;99.90;;;;;;4996459;28;20049;-72
2023/05/06 01:26:22;;;;;;;9.25;6.88;;;12.60;99.90;;;;;;5013580;28;20044;-72
2023/05/06 01:28:48;;;;;;;8.20;6.53;;;12.60;99.90;;;;;;5013840;28;20217;-71
2023/05/06 01:31:26;;;;;;;6.75;6.05;;;12.50;99.90;;;;;;4980092;28;20085;-71
2023/05/06 01:34:17;;;;;;;7.93;6.97;;;12.50;99.90;;;;;;5013703;28;20057;-71
2023/05/06 01:36:52;;;;;;;8.13;6.53;;;12.40;99.90;;;;;;5013402;28;20474;-71
2023/05/06 01:39:26;;;;;;;9.30;7.55;;;12.40;99.90;;;;;;5013494;28;20120;-71
2023/05/06 01:41:56;;;;;;;7.50;6.22;;;12.40;99.90;;;;;;5013261;28;20054;-71
2023/05/06 01:44:22;;;;;;;8.30;7.40;;;12.40;99.90;;;;;;4996617;28;20054;-72
2023/05/06 01:46:50;;;;;;;7.30;6.53;;;12.40;99.90;;;;;;5013026;28;20046;-72
2023/05/06 01:49:17;;;;;;;7.60;6.20;;;12.40;99.90;;;;;;4995723;28;20068;-71
2023/05/06 01:51:47;;;;;;;8.80;7.05;;;12.40;99.90;;;;;;5013121;28;20050;-72
2023/05/06 01:54:13;;;;;;;9.60;7.85;;;12.40;99.90;;;;;;5013112;28;20046;-72
2023/05/06 01:56:39;;;;;;;7.88;7.13;;;12.40;99.90;;;;;;5013162;28;20044;-72
2023/05/06 01:59:05;;;;;;;7.90;7.05;;;12.40;99.90;;;;;;5013076;28;20516;-71
2023/05/06 02:01:31;;;;;;;9.45;7.63;;;12.30;99.90;;;;;;5013036;28;20049;-72
2023/05/06 02:03:56;;;;;;;10.52;7.70;;;12.30;99.90;;;;;;4995358;28;20065;-72
2023/05/06 02:06:22;;;;;;;8.77;7.88;;;12.20;99.90;;;;;;5013563;28;20371;-72
2023/05/06 02:08:48;;;;;;;9.80;7.72;;;12.10;99.90;;;;;;4996134;28;20433;-71
2023/05/06 02:11:14;;;;;;;9.40;7.28;;;12.10;99.90;;;;;;5013180;28;20046;-71
2023/05/06 02:13:40;;;;;;;9.00;7.25;;;12.10;99.90;;;;;;4996237;28;20096;-72
2023/05/06 02:16:06;;;;;;;11.10;8.48;;;12.00;99.90;;;;;;5012855;28;20054;-72
2023/05/06 02:18:31;;;;;;;11.00;8.57;;;12.00;99.90;;;;;;5012922;28;20145;-71
2023/05/06 02:20:57;;;;;;;9.45;7.82;;;11.90;99.90;;;;;;5012379;28;20065;-71
2023/05/06 02:23:23;;;;;;;10.52;8.07;;;11.90;99.90;;;;;;5012980;28;20082;-71
2023/05/06 02:25:49;;;;;;;10.10;7.57;;;11.80;99.90;;;;;;5012272;28;20060;-72
2023/05/06 02:28:14;;;;;;;8.32;7.43;;;11.80;99.90;;;;;;5012791;28;20062;-71
2023/05/06 02:30:40;;;;;;;7.15;6.35;;;11.80;99.90;;;;;;5013253;28;20049;-71
2023/05/06 02:33:06;;;;;;;6.47;5.78;;;11.70;99.90;;;;;;5013446;28;20460;-71
2023/05/06 02:35:31;;;;;;;7.57;5.85;;;11.40;99.90;;;;;;4994986;28;20054;-71
2023/05/06 02:37:58;;;;;;;8.18;5.75;;;11.30;99.90;;;;;;5012582;28;20053;-72
2023/05/06 02:40:24;;;;;;;6.30;5.70;;;11.20;99.90;;;;;;5012650;28;20054;-71
2023/05/06 02:42:49;;;;;;;4.80;4.40;;;11.30;99.90;;;;;;5012578;28;20163;-71
2023/05/06 02:45:15;;;;;;;7.75;5.22;;;11.20;99.90;;;;;;5012543;28;20042;-71
2023/05/06 02:47:41;;;;;;;5.68;5.05;;;11.20;99.90;;;;;;5012704;28;20572;-72
2023/05/06 02:50:07;;;;;;;8.40;7.00;;;11.00;99.90;;;;;;5012570;28;20469;-71
2023/05/06 02:52:33;;;;;;;6.65;5.18;;;11.20;99.90;;;;;;5012521;28;20132;-72
2023/05/06 02:55:00;;;;;;;83.28;12.55;;;11.20;99.90;;;;;;4995223;28;20140;-71
2023/05/06 02:57:25;;;;;;;70.13;11.00;;;11.10;99.90;;;;;;5012436;28;20049;-71
2023/05/06 02:59:51;;;;;;;47.58;8.85;;;11.00;99.90;;;;;;5012930;28;20057;-71
2023/05/06 03:02:17;;;;;;;24.17;6.20;;;11.00;99.90;;;;;;5012629;28;20600;-71
2023/05/06 03:04:42;;;;;;;70.32;10.32;;;11.10;99.90;;;;;;5012322;28;20459;-71
2023/05/06 03:07:08;;;;;;;108.88;12.65;;;11.00;99.90;;;;;;5012384;28;20116;-71
2023/05/06 03:09:34;;;;;;;39.92;8.25;;;11.00;99.90;;;;;;5012284;28;20133;-72
2023/05/06 03:12:01;;;;;;;43.47;8.20;;;10.90;99.90;;;;;;4995245;28;20475;-71
2023/05/06 03:14:26;;;;;;;79.00;10.73;;;10.90;99.90;;;;;;5012259;28;20058;-71
2023/05/06 03:16:52;;;;;;;34.85;6.57;;;10.90;99.90;;;;;;5012267;28;20041;-71
2023/05/06 03:19:18;;;;;;;20.95;5.40;;;10.90;99.90;;;;;;4995118;28;20054;-71
2023/05/06 03:21:44;;;;;;;12.63;4.88;;;10.90;99.90;;;;;;5012272;28;20085;-71
2023/05/06 03:24:10;;;;;;;7.78;3.80;;;10.80;99.90;;;;;;5012287;28;20049;-71
2023/05/06 03:26:36;;;;;;;10.55;4.63;;;10.70;99.90;;;;;;5012331;28;20501;-71
2023/05/06 03:29:02;;;;;;;9.57;4.85;;;10.80;99.90;;;;;;5012702;28;20050;-71
2023/05/06 03:31:27;;;;;;;15.05;5.28;;;10.70;99.90;;;;;;5012898;28;20049;-71
2023/05/06 03:33:53;;;;;;;16.90;7.35;;;10.70;99.90;;;;;;5011949;28;20125;-72
2023/05/06 03:36:20;;;;;;;16.42;6.38;;;10.70;99.90;;;;;;5012727;28;20049;-71
2023/05/06 03:38:46;;;;;;;9.25;5.80;;;10.60;99.90;;;;;;5014606;28;20053;-71
2023/05/06 03:41:12;;;;;;;7.47;4.80;;;10.50;99.90;;;;;;5015645;28;20120;-71
2023/05/06 03:43:37;;;;;;;17.13;6.70;;;10.60;99.90;;;;;;5016109;28;20045;-72
2023/05/06 03:46:03;;;;;;;8.30;4.78;;;10.50;99.90;;;;;;5015923;28;20439;-71
2023/05/06 03:48:30;;;;;;;20.35;6.35;;;10.30;99.90;;;;;;4998466;28;20064;-72
2023/05/06 03:50:55;;;;;;;10.95;5.60;;;10.50;99.90;;;;;;5015912;28;20057;-71
2023/05/06 03:53:21;;;;;;;135.07;12.98;;;10.50;99.90;;;;;;5015339;28;20041;-71
2023/05/06 03:55:47;;;;;;;35.42;6.78;;;10.50;99.90;;;;;;5015747;28;20053;-71
2023/05/06 03:58:13;;;;;;;38.60;5.57;;;10.50;99.90;;;;;;5015923;28;20038;-71
2023/05/06 04:00:38;;;;;;;82.68;7.72;;;10.50;99.90;;;;;;5015948;28;20478;-71
2023/05/06 04:03:04;;;;;;;28.17;4.57;;;10.40;99.90;;;;;;5015183;28;20488;-72
2023/05/06 04:05:30;;;;;;;35.90;4.65;;;10.30;99.90;;;;;;5015234;28;20115;-71
2023/05/06 04:07:55;;;;;;;71.50;5.82;;;10.30;99.90;;;;;;5014924;28;20057;-71
2023/05/06 04:10:21;;;;;;;46.60;4.78;;;10.20;99.90;;;;;;5015565;28;20057;-71
2023/05/06 04:12:47;;;;;;;73.15;6.85;;;10.10;99.90;;;;;;5015299;28;20073;-72
2023/05/06 04:15:13;;;;;;;82.95;7.80;;;10.00;99.90;;;;;;5015141;28;20061;-71
2023/05/06 04:17:38;;;;;;;73.68;6.97;;;9.90;99.90;;;;;;5014909;28;20538;-71
2023/05/06 04:20:05;;;;;;;96.07;8.25;;;9.90;99.90;;;;;;5014824;28;20046;-71
2023/05/06 04:22:31;;;;;;;84.00;6.72;;;9.80;99.90;;;;;;5014913;28;20053;-71
2023/05/06 04:24:59;;;;;;;52.72;5.68;;;9.80;99.90;;;;;;5014866;28;20049;-71
2023/05/06 04:27:28;;;;;;;56.70;6.07;;;9.70;99.90;;;;;;5014711;28;20052;-70
2023/05/06 04:29:54;;;;;;;51.53;5.80;;;9.80;99.90;;;;;;5014826;28;20111;-72
2023/05/06 04:32:23;;;;;;;78.18;8.05;;;9.80;99.90;;;;;;5014433;28;20625;-71
2023/05/06 04:34:50;;;;;;;70.85;7.30;;;9.70;99.90;;;;;;5014138;28;20065;-72
2023/05/06 04:37:18;;;;;;;57.63;5.68;;;9.60;99.90;;;;;;5014561;28;20092;-72
2023/05/06 04:39:45;;;;;;;58.85;6.78;;;9.60;99.90;;;;;;5014876;28;20049;-72
2023/05/06 04:42:11;;;;;;;53.90;6.25;;;9.60;99.90;;;;;;5014431;28;20060;-71
2023/05/06 04:44:37;;;;;;;84.63;8.48;;;9.70;99.90;;;;;;4996913;28;20046;-72
2023/05/06 04:47:02;;;;;;;42.10;6.30;;;9.70;99.90;;;;;;5013987;28;20084;-72
2023/05/06 04:49:28;;;;;;;70.03;8.90;;;9.90;99.90;;;;;;5014061;28;20045;-72
2023/05/06 04:51:54;;;;;;;8.73;4.32;;;10.10;99.90;;;;;;5014705;28;20554;-72
2023/05/06 04:54:20;;;;;;;87.70;11.40;;;10.20;99.90;;;;;;5014538;28;20049;-71
2023/05/06 04:56:46;;;;;;;41.45;7.05;;;10.30;99.90;;;;;;4996504;28;20054;-72
2023/05/06 04:59:11;;;;;;;25.42;7.10;;;10.30;99.90;;;;;;5014172;28;20056;-71
2023/05/06 05:01:37;;;;;;;19.58;5.53;;;10.30;99.90;;;;;;5014703;28;20184;-73
2023/05/06 05:04:03;;;;;;;21.58;5.90;;;10.40;99.90;;;;;;4981077;28;20481;-73
2023/05/06 05:06:28;;;;;;;13.73;5.00;;;10.30;99.90;;;;;;5014612;28;20476;-74
2023/05/06 05:08:54;;;;;;;7.65;4.32;;;10.40;99.90;;;;;;5014057;28;20038;-74
2023/05/06 05:11:20;;;;;;;4.72;4.32;;;10.40;99.90;;;;;;5013976;28;20048;-73
2023/05/06 05:13:45;;;;;;;5.53;4.32;;;10.50;99.90;;;;;;5013913;28;20084;-74
2023/05/06 05:16:11;;;;;;;5.50;4.93;;;10.50;99.90;;;;;;4996763;28;20050;-74
2023/05/06 05:18:37;;;;;;;5.28;4.88;;;10.60;99.90;;;;;;4996784;28;20148;-74
2023/05/06 05:21:02;;;;;;;5.30;4.85;;;10.70;99.90;;;;;;5013819;28;20092;-74
2023/05/06 05:23:28;;;;;;;5.68;5.18;;;10.70;99.90;;;;;;5013778;28;20050;-74
2023/05/06 05:25:54;;;;;;;5.90;5.40;;;10.80;99.90;;;;;;5013683;28;20503;-76
2023/05/06 05:28:20;;;;;;;5.90;5.30;;;10.90;99.90;;;;;;5014100;28;20085;-74
2023/05/06 05:30:46;;;;;;;6.25;5.65;;;11.00;99.90;;;;;;5013750;28;20084;-74
2023/05/06 05:33:11;;;;;;;5.93;5.43;;;11.10;99.90;;;;;;5014017;28;20057;-76
2023/05/06 05:35:37;;;;;;;5.15;4.75;;;11.10;99.90;;;;;;5013631;28;20050;-76
2023/05/06 05:38:03;;;;;;;5.57;4.90;;;11.20;99.90;;;;;;5013589;28;20475;-74
2023/05/06 05:40:28;;;;;;;5.57;5.07;;;11.20;99.90;;;;;;4996019;28;20092;-74
2023/05/06 05:42:54;;;;;;;5.20;4.70;;;11.20;99.90;;;;;;5013402;28;20054;-76
2023/05/06 05:45:20;;;;;;;5.07;4.50;;;11.20;99.90;;;;;;5013377;28;20049;-74
2023/05/06 05:47:46;;;;;;;5.20;4.80;;;11.30;99.90;;;;;;5013342;28;20046;-76
2023/05/06 05:50:11;;;;;;;5.30;4.80;;;11.30;99.90;;;;;;5013606;28;20133;-74
2023/05/06 05:52:37;;;;;;;6.18;5.57;;;11.30;99.90;;;;;;4996075;28;20041;-74
2023/05/06 05:55:03;;;;;;;5.95;5.40;;;11.30;99.90;;;;;;5013517;28;20086;-75
2023/05/06 05:57:29;;;;;;;8.43;6.78;;;11.30;99.90;;;;;;4996426;28;20050;-76
2023/05/06 05:59:55;;;;;;;8.27;7.47;;;11.30;99.90;;;;;;5012630;28;20582;-74
2023/05/06 06:02:21;;;;;;;12.32;10.27;;;11.30;99.90;;;;;;5013016;28;20050;-74
2023/05/06 06:04:46;;;;;;;19.73;15.43;;;11.40;99.90;;;;;;5011732;28;20065;-74
2023/05/06 06:07:12;;;;;;;30.95;23.55;;;11.40;99.90;;;;;;5013249;28;20050;-74
2023/05/06 06:09:38;;;;;;;39.08;30.95;;;11.50;99.90;;;;;;4995841;28;20513;-73
2023/05/06 06:12:04;;;;;;;40.20;33.22;;;11.60;99.90;;;;;;5013418;28;20046;-74
2023/05/06 06:14:29;;;;;;;44.33;33.78;;;11.60;99.90;;;;;;5013120;28;20049;-74
2023/05/06 06:16:55;;;;;;;47.58;36.05;;;11.70;99.90;;;;;;5012981;28;20107;-74
2023/05/06 06:19:21;;;;;;;37.05;29.98;;;11.70;99.90;;;;;;5013310;28;20386;-74
2023/05/06 06:21:46;;;;;;;27.60;23.90;;;11.80;99.90;;;;;;5012301;28;20140;-74
2023/05/06 06:24:12;;;;;;;33.03;28.42;;;11.90;99.90;;;;;;4995304;28;20053;-74
2023/05/06 06:26:38;;;;;;;23.08;20.40;;;12.00;99.90;;;;;;4995381;28;20049;-74
2023/05/06 06:29:03;;;;;;;31.92;28.73;;;12.00;99.90;;;;;;5012750;28;20048;-75
2023/05/06 06:31:29;;;;;;;28.33;24.83;;;12.00;99.90;;;;;;4995806;28;20498;-76
2023/05/06 06:33:55;;;;;;;24.67;22.08;;;12.00;99.90;;;;;;5012380;28;20060;-76
2023/05/06 06:36:20;;;;;;;23.92;20.73;;;12.00;99.90;;;;;;5012693;28;20108;-73
2023/05/06 06:38:46;;;;;;;20.45;18.52;;;12.10;99.90;;;;;;4995016;28;20060;-75
2023/05/06 06:41:12;;;;;;;21.17;18.88;;;12.10;99.90;;;;;;5012509;28;20046;-74
2023/05/06 06:43:37;;;;;;;19.45;16.40;;;12.20;99.90;;;;;;4995164;28;20046;-72
2023/05/06 06:46:03;;;;;;;18.67;16.80;;;12.20;99.90;;;;;;5012162;28;20041;-72
2023/05/06 06:48:29;;;;;;;16.50;14.70;;;12.20;99.90;;;;;;4994785;28;20141;-72
2023/05/06 06:50:54;;;;;;;23.05;18.55;;;12.30;99.90;;;;;;5012534;28;20050;-72
2023/05/06 06:53:20;;;;;;;31.92;28.55;;;12.30;99.90;;;;;;5012526;28;20053;-72
2023/05/06 06:55:46;;;;;;;37.40;32.22;;;12.30;99.90;;;;;;5012618;28;20042;-72
2023/05/06 06:58:12;;;;;;;31.33;28.00;;;12.30;99.90;;;;;;5012356;28;20400;-72
2023/05/06 07:00:38;;;;;;;29.50;24.60;;;12.40;99.90;;;;;;5012394;28;20056;-72
2023/05/06 07:03:03;;;;;;;24.63;19.80;;;12.30;99.90;;;;;;5012472;28;20076;-72
2023/05/06 07:05:29;;;;;;;23.15;19.40;;;12.40;99.90;;;;;;5012292;28;20046;-72
2023/05/06 07:07:55;;;;;;;24.08;20.58;;;12.40;99.90;;;;;;5012910;28;20050;-72
2023/05/06 07:10:21;;;;;;;24.58;21.02;;;12.50;99.90;;;;;;4995069;28;20447;-72
2023/05/06 07:12:47;;;;;;;23.10;19.20;;;12.50;99.90;;;;;;5014871;28;20088;-72
2023/05/06 07:15:12;;;;;;;16.63;14.93;;;12.50;99.90;;;;;;4998924;28;20042;-71
2023/05/06 07:17:38;;;;;;;14.75;13.23;;;12.60;99.90;;;;;;5016027;28;20045;-72
2023/05/06 07:20:04;;;;;;;14.63;13.00;;;12.70;99.90;;;;;;5015884;28;20156;-72
2023/05/06 07:22:30;;;;;;;14.68;11.60;;;12.80;99.90;;;;;;4998154;28;20125;-73
2023/05/06 07:24:56;;;;;;;14.77;13.15;;;12.80;99.90;;;;;;5016239;28;20046;-72
2023/05/06 07:27:23;;;;;;;16.42;12.73;;;13.00;99.90;;;;;;5015464;28;20497;-72
2023/05/06 07:29:49;;;;;;;16.00;13.65;;;13.10;99.90;;;;;;5015472;28;20133;-72
2023/05/06 07:32:15;;;;;;;17.25;13.55;;;13.10;99.90;;;;;;5015652;28;20048;-72
2023/05/06 07:34:41;;;;;;;16.63;13.80;;;13.10;99.90;;;;;;5015929;28;20099;-72
2023/05/06 07:37:07;;;;;;;16.58;14.65;;;13.10;99.90;;;;;;5015707;28;20521;-72
2023/05/06 07:39:33;;;;;;;16.55;14.48;;;13.20;99.90;;;;;;5015823;28;20054;-73
2023/05/06 07:41:58;;;;;;;16.75;13.13;;;13.20;99.90;;;;;;4998416;28;20049;-72
2023/05/06 07:44:24;;;;;;;18.15;14.63;;;13.30;99.90;;;;;;5015298;28;20096;-72
2023/05/06 07:46:50;;;;;;;15.50;13.88;;;13.40;99.90;;;;;;5015628;28;20463;-72
2023/05/06 07:49:16;;;;;;;16.65;13.82;;;13.50;99.90;;;;;;5015800;28;20137;-72
2023/05/06 07:51:42;;;;;;;17.30;14.65;;;13.60;99.90;;;;;;5015342;28;20112;-72
2023/05/06 07:54:08;;;;;;;18.63;13.90;;;13.70;99.90;;;;;;5015216;28;20042;-72
2023/05/06 07:56:34;;;;;;;18.83;14.60;;;13.90;99.90;;;;;;5015721;28;20053;-72
2023/05/06 07:58:59;;;;;;;18.50;14.90;;;14.00;99.90;;;;;;5015181;28;20573;-72
2023/05/06 08:01:26;;;;;;;17.00;13.18;;;14.10;99.90;;;;;;5015110;28;20128;-72
2023/05/06 08:03:51;;;;;;;17.33;13.63;;;14.30;99.90;;;;;;5014930;28;20444;-72
2023/05/06 08:06:17;;;;;;;18.77;13.25;;;14.60;99.90;;;;;;4997508;28;20045;-72
2023/05/06 08:08:45;;;;;;;14.20;11.32;;;15.80;99.90;;;;;;4997796;28;20041;-72
2023/05/06 08:11:10;;;;;;;15.65;12.32;;;17.30;99.90;;;;;;5015229;28;20050;-72
2023/05/06 08:13:36;;;;;;;15.48;10.55;;;18.60;99.90;;;;;;5014833;28;20046;-72
2023/05/06 08:16:02;;;;;;;13.50;10.93;;;19.70;99.90;;;;;;5014743;28;20053;-73
2023/05/06 08:18:28;;;;;;;13.35;10.60;;;20.60;99.90;;;;;;4997381;28;20046;-73
2023/05/06 08:20:54;;;;;;;14.15;8.90;;;21.30;99.90;;;;;;5014942;28;20129;-73
2023/05/06 08:23:20;;;;;;;12.93;9.50;;;22.10;99.90;;;;;;4997142;28;20400;-73
2023/05/06 08:25:46;;;;;;;9.85;8.07;;;22.20;99.90;;;;;;5015112;28;20053;-73
2023/05/06 08:28:11;;;;;;;11.23;9.00;;;22.50;99.90;;;;;;5014395;28;20057;-72
2023/05/06 08:30:37;;;;;;;13.82;9.45;;;22.70;99.90;;;;;;5014206;28;20463;-73
2023/05/06 08:33:03;;;;;;;9.48;7.90;;;22.70;99.90;;;;;;5014451;28;20045;-72
2023/05/06 08:35:28;;;;;;;10.20;9.20;;;22.90;99.90;;;;;;4996698;28;20057;-73
2023/05/06 08:37:54;;;;;;;8.85;7.95;;;23.20;99.90;;;;;;5014357;28;20585;-73
2023/05/06 08:40:22;;;;;;;9.15;8.25;;;23.30;99.90;;;;;;5014135;28;20046;-73
2023/05/06 08:42:49;;;;;;;10.63;8.35;;;23.60;99.90;;;;;;5014401;28;20060;-73
2023/05/06 08:45:18;;;;;;;10.85;7.97;;;23.90;99.90;;;;;;4996788;28;20141;-73
2023/05/06 08:47:45;;;;;;;10.77;8.38;;;24.00;99.90;;;;;;5014580;28;20081;-73
2023/05/06 08:50:11;;;;;;;12.93;8.60;;;24.10;99.90;;;;;;4996783;28;20448;-72
2023/05/06 08:52:38;;;;;;;10.70;7.63;;;24.40;99.90;;;;;;4997571;28;20056;-72
2023/05/06 08:55:05;;;;;;;10.57;8.57;;;24.30;99.90;;;;;;5013873;28;20393;-72
2023/05/06 08:57:33;;;;;;;11.45;8.68;;;23.80;99.90;;;;;;5014054;28;20390;-73
2023/05/06 08:59:59;;;;;;;11.60;8.23;;;23.90;99.90;;;;;;5014351;28;20132;-73
2023/05/06 09:02:25;;;;;;;8.98;8.05;;;23.90;99.90;;;;;;4996450;28;20055;-72
2023/05/06 09:04:53;;;;;;;9.90;7.53;;;24.30;99.90;;;;;;5013926;28;20046;-72
2023/05/06 09:07:22;;;;;;;9.98;8.23;;;23.80;99.90;;;;;;5014069;28;20046;-72
2023/05/06 09:09:50;;;;;;;9.07;7.10;;;23.80;99.90;;;;;;5013962;28;20054;-72
2023/05/06 09:12:15;;;;;;;9.60;6.80;;;23.60;99.90;;;;;;5013978;28;20061;-72
2023/05/06 09:14:42;;;;;;;8.38;7.22;;;23.90;99.90;;;;;;4996600;28;20400;-72
2023/05/06 09:17:22;;;;;;;8.00;6.75;;;23.70;99.90;;;;;;5013868;28;20038;-71
2023/05/06 09:19:55;;;;;;;8.98;6.47;;;24.00;99.90;;;;;;4997464;28;20050;-72
2023/05/06 09:22:21;;;;;;;9.18;7.00;;;24.10;99.90;;;;;;5013799;28;20046;-72
2023/05/06 09:24:57;;;;;;;8.82;6.72;;;24.30;99.90;;;;;;4996463;28;20181;-72
2023/05/06 09:27:23;;;;;;;7.10;6.30;;;24.30;99.90;;;;;;4996325;28;20042;-72
2023/05/06 09:30:07;;;;;;;7.03;6.32;;;24.40;99.90;;;;;;5013249;28;20550;-72
2023/05/06 09:32:33;;;;;;;7.55;6.05;;;24.60;99.90;;;;;;4996664;28;20053;-72
2023/05/06 09:35:00;;;;;;;9.02;7.05;;;25.00;99.90;;;;;;4994930;28;20049;-72
2023/05/06 09:37:26;;;;;;;7.95;6.80;;;25.30;99.90;;;;;;4996252;28;20461;-72
2023/05/06 09:39:57;;;;;;;5.75;5.25;;;25.60;99.90;;;;;;5013367;28;20045;-72
2023/05/06 09:42:25;;;;;;;9.45;6.22;;;25.60;99.90;;;;;;5013823;28;20053;-72
2023/05/06 09:44:53;;;;;;;6.32;5.18;;;25.60;99.90;;;;;;4996065;28;20041;-72
2023/05/06 09:47:21;;;;;;;7.32;6.22;;;25.30;99.90;;;;;;5013209;28;20038;-72
2023/05/06 09:49:46;;;;;;;7.97;5.90;;;25.50;99.90;;;;;;5013255;28;20050;-72
2023/05/06 09:52:12;;;;;;;9.68;6.55;;;25.50;99.90;;;;;;4995910;28;20052;-72
2023/05/06 09:54:39;;;;;;;7.57;5.88;;;25.70;99.90;;;;;;5013099;28;20121;-72
2023/05/06 09:57:06;;;;;;;5.70;5.13;;;25.90;99.90;;;;;;5013511;28;20053;-72
2023/05/06 09:59:33;;;;;;;6.32;5.30;;;25.90;99.90;;;;;;4995943;28;20057;-72
2023/05/06 10:01:59;;;;;;;7.25;6.03;;;25.90;99.90;;;;;;5013122;28;20057;-74
2023/05/06 10:04:27;;;;;;;8.45;7.05;;;26.00;99.90;;;;;;4979348;28;20045;-73
2023/05/06 10:06:59;;;;;;;7.18;6.47;;;25.70;99.90;;;;;;4979836;28;20045;-73
2023/05/06 10:09:26;;;;;;;7.07;5.97;;;25.70;99.90;;;;;;4995673;28;20061;-72
2023/05/06 10:11:52;;;;;;;8.02;6.15;;;25.60;99.90;;;;;;4995648;28;20128;-77
2023/05/06 10:14:18;;;;;;;10.00;6.70;;;24.90;99.90;;;;;;5012822;28;20129;-73
2023/05/06 10:16:48;;;;;;;7.20;6.20;;;24.50;99.90;;;;;;5013269;28;20125;-72
2023/05/06 10:19:21;;;;;;;8.07;6.13;;;24.30;99.90;;;;;;5012484;28;20512;-72
2023/05/06 10:21:53;;;;;;;8.38;6.88;;;24.00;99.90;;;;;;5012906;28;20046;-73
2023/05/06 10:24:27;;;;;;;8.40;5.95;;;24.30;99.90;;;;;;5012793;28;20096;-73
2023/05/06 10:26:55;;;;;;;10.05;6.90;;;24.90;99.90;;;;;;5013340;28;20513;-72
2023/05/06 10:29:25;;;;;;;8.70;7.25;;;25.10;99.90;;;;;;5012704;28;20089;-73
2023/05/06 10:31:56;;;;;;;8.65;6.90;;;24.40;99.90;;;;;;4995268;28;20054;-72
2023/05/06 10:34:23;;;;;;;7.25;6.45;;;23.90;99.90;;;;;;4994750;28;20108;-72
2023/05/06 10:36:52;;;;;;;8.25;6.50;;;23.60;99.90;;;;;;5012657;28;20050;-73
2023/05/06 10:39:19;;;;;;;9.32;6.70;;;23.20;99.90;;;;;;5012992;28;20055;-73
2023/05/06 10:41:46;;;;;;;8.68;7.40;;;23.00;99.90;;;;;;5012597;28;20136;-73
2023/05/06 10:44:12;;;;;;;8.63;7.38;;;22.80;99.90;;;;;;5012924;28;20380;-72
2023/05/06 10:47:04;;;;;;;10.52;7.68;;;22.60;99.90;;;;;;4996108;28;20107;-72
2023/05/06 10:49:30;;;;;;;10.43;8.43;;;22.20;99.90;;;;;;5014515;28;20060;-72
2023/05/06 10:52:13;;;;;;;11.02;8.43;;;21.80;99.90;;;;;;5017238;28;20046;-71
2023/05/06 10:54:49;;;;;;;11.38;9.23;;;21.50;99.90;;;;;;5016511;28;20061;-72
2023/05/06 10:57:15;;;;;;;10.55;8.07;;;21.00;99.90;;;;;;5016725;28;20133;-72
2023/05/06 10:59:48;;;;;;;12.02;10.05;;;20.70;99.90;;;;;;5016377;28;20061;-74
2023/05/06 11:02:18;;;;;;;11.35;8.93;;;20.40;99.90;;;;;;5016419;28;20046;-71
2023/05/06 11:04:50;;;;;;;11.48;8.90;;;20.20;99.90;;;;;;5016353;28;20108;-72
2023/05/06 11:07:22;;;;;;;12.60;9.77;;;20.00;99.90;;;;;;5017134;28;20117;-71
2023/05/06 11:10:04;;;;;;;11.07;9.63;;;19.90;99.90;;;;;;4998534;28;20048;-71
2023/05/06 11:12:48;;;;;;;12.25;9.93;;;19.80;99.90;;;;;;5016374;28;20053;-72
2023/05/06 11:15:35;;;;;;;15.30;11.23;;;19.80;99.90;;;;;;5016466;28;20050;-72
2023/05/06 11:18:23;;;;;;;14.60;10.32;;;20.20;99.90;;;;;;4998561;28;20136;-72
2023/05/06 11:21:09;;;;;;;15.32;10.57;;;20.60;99.90;;;;;;5015718;28;20045;-73
2023/05/06 11:23:41;;;;;;;14.85;10.88;;;21.00;99.90;;;;;;5007987;28;20058;-72
2023/05/06 11:26:09;;;;;;;14.65;11.43;;;21.10;99.90;;;;;;5015573;28;20054;-71
2023/05/06 11:28:35;;;;;;;17.70;12.82;;;21.10;99.90;;;;;;5015842;28;20042;-72
2023/05/06 11:31:01;;;;;;;12.50;10.60;;;21.10;99.90;;;;;;5015696;28;20116;-71
2023/05/06 11:33:32;;;;;;;13.00;10.65;;;21.10;99.90;;;;;;5016013;28;20042;-72
2023/05/06 11:36:02;;;;;;;12.73;10.20;;;21.10;99.90;;;;;;5016075;28;20053;-72
2023/05/06 11:38:47;;;;;;;15.60;10.38;;;21.10;99.90;;;;;;5015801;28;20049;-72
2023/05/06 11:41:14;;;;;;;13.20;10.15;;;21.00;99.90;;;;;;5015668;28;20069;-72
2023/05/06 11:43:51;;;;;;;14.52;11.02;;;21.20;99.90;;;;;;5015376;28;20467;-73
2023/05/06 11:46:22;;;;;;;14.48;10.20;;;21.40;99.90;;;;;;5015476;28;20041;-73
2023/05/06 11:48:49;;;;;;;17.05;11.88;;;21.60;99.90;;;;;;5015404;28;20087;-73
2023/05/06 11:51:15;;;;;;;10.02;8.82;;;21.90;99.90;;;;;;5015381;28;20117;-75
2023/05/06 11:53:40;;;;;;;13.73;9.55;;;22.10;99.90;;;;;;5015731;28;20077;-73
2023/05/06 11:56:07;;;;;;;12.32;9.52;;;22.10;99.30;;;;;;5015878;28;20138;-73
2023/05/06 11:58:32;;;;;;;14.27;10.60;;;22.00;99.10;;;;;;5014970;28;20053;-73
2023/05/06 12:01:00;;;;;;;15.30;10.18;;;22.20;99.30;;;;;;5015272;28;20505;-74
2023/05/06 12:03:27;;;;;;;11.68;10.02;;;22.20;99.30;;;;;;5015191;28;20049;-73
2023/05/06 12:05:53;;;;;;;14.70;10.45;;;22.30;99.00;;;;;;5015452;28;20100;-73
2023/05/06 12:08:26;;;;;;;13.98;10.07;;;22.10;98.80;;;;;;5015189;28;20050;-73
2023/05/06 12:11:06;;;;;;;13.07;10.20;;;21.90;98.90;;;;;;5015138;28;20041;-73
2023/05/06 12:13:36;;;;;;;13.18;10.05;;;21.70;99.60;;;;;;4997648;28;20045;-73
2023/05/06 12:16:04;;;;;;;18.10;10.80;;;21.60;99.90;;;;;;5015237;28;20125;-73
2023/05/06 12:18:30;;;;;;;14.77;11.65;;;21.40;99.80;;;;;;5015030;28;20069;-73
2023/05/06 12:20:56;;;;;;;16.20;11.88;;;21.30;99.90;;;;;;5013771;28;20447;-73
2023/05/06 12:23:22;;;;;;;15.35;12.23;;;21.10;99.80;;;;;;5014649;28;20050;-74
2023/05/06 12:26:08;;;;;;;15.15;11.63;;;21.00;99.50;;;;;;5014541;28;20072;-73
2023/05/06 12:28:35;;;;;;;14.98;11.45;;;20.90;99.70;;;;;;5013936;28;20053;-73
2023/05/06 12:31:27;;;;;;;15.48;12.63;;;20.80;99.90;;;;;;5015078;28;20049;-73
2023/05/06 12:33:53;;;;;;;15.93;12.65;;;20.70;99.90;;;;;;5014250;28;20053;-73
2023/05/06 12:36:19;;;;;;;11.82;10.63;;;20.70;99.90;;;;;;5014577;28;20076;-73
2023/05/06 12:39:05;;;;;;;13.48;10.90;;;20.70;99.90;;;;;;4996856;28;20534;-74